Adams, Illinois
Current Conditions -  °F | °C
As of 7:54 AM on Saturday 22 Nov 2014 (Local Time) from KUIN Reporting Station
Haze Haze  
Wind Chill:   Ceiling: 7500
Heat Index:   Visibility: 6mi
Dew Point:   Wind: 13mph
Humidity: 83%   Direction: 200°SSW
Pressure: 30"   Gusts: NA
Location:  39.8875°N, 91.0352°W
Report Text: KUIN 221354Z AUTO 20011KT 6SM HZ FEW020 OVC075 09/06 A3000 RMK AO2 SLP161 T00890061
Loading
Personal Weather Stations






























Interactive Weather Map New forecast layout! Learn more

10-Day Weather Forecast

Advertisements
Track Severe Weather on mobile